sensor_id;sensor_type;location;lat;lon;timestamp;P1;durP1;ratioP1;P2;durP2;ratioP2
23228;SDS011;11783;50.350;6.576;2023-03-12T00:01:26;10.40;;;5.60;;
23228;SDS011;11783;50.350;6.576;2023-03-12T00:03:54;12.98;;;5.70;;
23228;SDS011;11783;50.350;6.576;2023-03-12T00:06:20;9.98;;;5.85;;
23228;SDS011;11783;50.350;6.576;2023-03-12T00:08:46;12.63;;;6.50;;
23228;SDS011;11783;50.350;6.576;2023-03-12T00:11:13;11.95;;;5.63;;
23228;SDS011;11783;50.350;6.576;2023-03-12T00:13:41;11.05;;;5.55;;
23228;SDS011;11783;50.350;6.576;2023-03-12T00:16:11;11.30;;;6.32;;
23228;SDS011;11783;50.350;6.576;2023-03-12T00:18:38;12.13;;;6.35;;
23228;SDS011;11783;50.350;6.576;2023-03-12T00:21:04;15.02;;;6.00;;
23228;SDS011;11783;50.350;6.576;2023-03-12T00:23:30;12.50;;;6.20;;
23228;SDS011;11783;50.350;6.576;2023-03-12T00:26:03;12.02;;;6.00;;
23228;SDS011;11783;50.350;6.576;2023-03-12T00:28:33;13.68;;;6.22;;
23228;SDS011;11783;50.350;6.576;2023-03-12T00:30:59;10.98;;;6.20;;
23228;SDS011;11783;50.350;6.576;2023-03-12T00:33:25;13.52;;;6.20;;
23228;SDS011;11783;50.350;6.576;2023-03-12T00:35:52;11.40;;;5.57;;
23228;SDS011;11783;50.350;6.576;2023-03-12T00:38:18;11.43;;;5.88;;
23228;SDS011;11783;50.350;6.576;2023-03-12T00:40:43;13.52;;;6.43;;
23228;SDS011;11783;50.350;6.576;2023-03-12T00:43:09;13.20;;;6.35;;
23228;SDS011;11783;50.350;6.576;2023-03-12T00:45:35;10.90;;;6.03;;
23228;SDS011;11783;50.350;6.576;2023-03-12T00:48:00;11.13;;;6.57;;
23228;SDS011;11783;50.350;6.576;2023-03-12T00:50:25;11.95;;;6.28;;
23228;SDS011;11783;50.350;6.576;2023-03-12T00:52:51;12.68;;;5.97;;
23228;SDS011;11783;50.350;6.576;2023-03-12T00:55:16;10.65;;;6.00;;
23228;SDS011;11783;50.350;6.576;2023-03-12T00:57:42;10.60;;;6.10;;
23228;SDS011;11783;50.350;6.576;2023-03-12T01:00:08;13.07;;;6.35;;
23228;SDS011;11783;50.350;6.576;2023-03-12T01:02:35;13.45;;;6.45;;
23228;SDS011;11783;50.350;6.576;2023-03-12T01:05:02;10.18;;;5.53;;
23228;SDS011;11783;50.350;6.576;2023-03-12T01:07:28;11.23;;;5.30;;
23228;SDS011;11783;50.350;6.576;2023-03-12T01:09:53;13.43;;;5.63;;
23228;SDS011;11783;50.350;6.576;2023-03-12T01:12:19;10.68;;;5.53;;
23228;SDS011;11783;50.350;6.576;2023-03-12T01:14:44;11.38;;;5.45;;
23228;SDS011;11783;50.350;6.576;2023-03-12T01:17:09;10.82;;;5.43;;
23228;SDS011;11783;50.350;6.576;2023-03-12T01:19:35;14.13;;;5.97;;
23228;SDS011;11783;50.350;6.576;2023-03-12T01:22:00;10.30;;;5.38;;
23228;SDS011;11783;50.350;6.576;2023-03-12T01:24:25;11.00;;;5.38;;
23228;SDS011;11783;50.350;6.576;2023-03-12T01:26:51;7.93;;;3.65;;
23228;SDS011;11783;50.350;6.576;2023-03-12T01:29:17;6.75;;;3.85;;
23228;SDS011;11783;50.350;6.576;2023-03-12T01:31:43;10.35;;;4.00;;
23228;SDS011;11783;50.350;6.576;2023-03-12T01:34:09;11.07;;;3.97;;
23228;SDS011;11783;50.350;6.576;2023-03-12T01:36:36;8.30;;;4.03;;
23228;SDS011;11783;50.350;6.576;2023-03-12T01:39:01;9.45;;;3.85;;
23228;SDS011;11783;50.350;6.576;2023-03-12T01:41:28;8.77;;;3.67;;
23228;SDS011;11783;50.350;6.576;2023-03-12T01:43:56;9.65;;;3.88;;
23228;SDS011;11783;50.350;6.576;2023-03-12T01:46:31;7.10;;;3.22;;
23228;SDS011;11783;50.350;6.576;2023-03-12T02:00:08;9.05;;;4.15;;
23228;SDS011;11783;50.350;6.576;2023-03-12T02:02:40;9.88;;;4.53;;
23228;SDS011;11783;50.350;6.576;2023-03-12T02:07:36;9.98;;;3.67;;
23228;SDS011;11783;50.350;6.576;2023-03-12T02:10:02;10.88;;;3.80;;
23228;SDS011;11783;50.350;6.576;2023-03-12T02:12:28;9.68;;;3.20;;
23228;SDS011;11783;50.350;6.576;2023-03-12T02:14:53;7.80;;;2.97;;
23228;SDS011;11783;50.350;6.576;2023-03-12T02:17:19;9.10;;;3.38;;
23228;SDS011;11783;50.350;6.576;2023-03-12T02:22:16;7.10;;;2.85;;
23228;SDS011;11783;50.350;6.576;2023-03-12T02:24:47;11.75;;;3.22;;
23228;SDS011;11783;50.350;6.576;2023-03-12T02:27:19;13.27;;;3.38;;
23228;SDS011;11783;50.350;6.576;2023-03-12T02:29:46;10.52;;;3.40;;
23228;SDS011;11783;50.350;6.576;2023-03-12T02:32:14;11.60;;;3.78;;
23228;SDS011;11783;50.350;6.576;2023-03-12T02:34:45;8.45;;;4.05;;
23228;SDS011;11783;50.350;6.576;2023-03-12T02:37:12;7.15;;;3.30;;
23228;SDS011;11783;50.350;6.576;2023-03-12T02:39:37;11.65;;;3.42;;
23228;SDS011;11783;50.350;6.576;2023-03-12T02:42:04;7.00;;;3.13;;
23228;SDS011;11783;50.350;6.576;2023-03-12T02:44:30;7.40;;;3.00;;
23228;SDS011;11783;50.350;6.576;2023-03-12T02:47:02;6.72;;;2.53;;
23228;SDS011;11783;50.350;6.576;2023-03-12T02:49:29;4.97;;;2.25;;
23228;SDS011;11783;50.350;6.576;2023-03-12T02:51:57;6.93;;;2.55;;
23228;SDS011;11783;50.350;6.576;2023-03-12T02:54:22;11.80;;;3.13;;
23228;SDS011;11783;50.350;6.576;2023-03-12T02:56:49;6.68;;;2.65;;
23228;SDS011;11783;50.350;6.576;2023-03-12T02:59:16;6.95;;;2.80;;
23228;SDS011;11783;50.350;6.576;2023-03-12T03:01:42;13.30;;;3.05;;
23228;SDS011;11783;50.350;6.576;2023-03-12T03:04:08;9.20;;;2.60;;
23228;SDS011;11783;50.350;6.576;2023-03-12T03:06:35;8.35;;;3.10;;
23228;SDS011;11783;50.350;6.576;2023-03-12T03:09:03;9.70;;;2.72;;
23228;SDS011;11783;50.350;6.576;2023-03-12T03:11:29;8.45;;;2.50;;
23228;SDS011;11783;50.350;6.576;2023-03-12T03:13:54;7.28;;;3.17;;
23228;SDS011;11783;50.350;6.576;2023-03-12T03:16:20;7.00;;;2.60;;
23228;SDS011;11783;50.350;6.576;2023-03-12T03:18:46;9.15;;;2.80;;
23228;SDS011;11783;50.350;6.576;2023-03-12T03:21:12;8.60;;;2.50;;
23228;SDS011;11783;50.350;6.576;2023-03-12T03:23:41;5.90;;;2.35;;
23228;SDS011;11783;50.350;6.576;2023-03-12T03:26:10;6.20;;;2.27;;
23228;SDS011;11783;50.350;6.576;2023-03-12T03:28:36;8.13;;;3.03;;
23228;SDS011;11783;50.350;6.576;2023-03-12T03:31:01;11.40;;;2.70;;
23228;SDS011;11783;50.350;6.576;2023-03-12T03:33:28;5.70;;;2.50;;
23228;SDS011;11783;50.350;6.576;2023-03-12T03:35:55;5.15;;;2.55;;
23228;SDS011;11783;50.350;6.576;2023-03-12T03:38:23;5.93;;;2.50;;
23228;SDS011;11783;50.350;6.576;2023-03-12T03:40:49;9.95;;;2.78;;
23228;SDS011;11783;50.350;6.576;2023-03-12T03:43:14;8.10;;;2.70;;
23228;SDS011;11783;50.350;6.576;2023-03-12T03:45:40;6.18;;;2.80;;
23228;SDS011;11783;50.350;6.576;2023-03-12T03:48:07;8.43;;;2.67;;
23228;SDS011;11783;50.350;6.576;2023-03-12T03:50:32;9.63;;;2.50;;
23228;SDS011;11783;50.350;6.576;2023-03-12T03:52:58;6.88;;;2.33;;
23228;SDS011;11783;50.350;6.576;2023-03-12T03:55:23;4.43;;;2.10;;
23228;SDS011;11783;50.350;6.576;2023-03-12T03:57:48;6.07;;;2.50;;
23228;SDS011;11783;50.350;6.576;2023-03-12T04:00:14;6.50;;;2.20;;
23228;SDS011;11783;50.350;6.576;2023-03-12T04:02:42;8.98;;;2.33;;
23228;SDS011;11783;50.350;6.576;2023-03-12T04:05:08;5.28;;;2.10;;
23228;SDS011;11783;50.350;6.576;2023-03-12T04:07:34;7.45;;;2.50;;
23228;SDS011;11783;50.350;6.576;2023-03-12T04:09:59;6.80;;;2.13;;
23228;SDS011;11783;50.350;6.576;2023-03-12T04:12:25;7.47;;;2.50;;
23228;SDS011;11783;50.350;6.576;2023-03-12T04:14:51;7.22;;;2.55;;
23228;SDS011;11783;50.350;6.576;2023-03-12T04:17:16;9.02;;;2.50;;
23228;SDS011;11783;50.350;6.576;2023-03-12T04:19:42;7.65;;;2.65;;
23228;SDS011;11783;50.350;6.576;2023-03-12T04:22:08;7.72;;;2.40;;
23228;SDS011;11783;50.350;6.576;2023-03-12T04:24:33;8.32;;;2.08;;
23228;SDS011;11783;50.350;6.576;2023-03-12T04:26:59;6.22;;;2.42;;
23228;SDS011;11783;50.350;6.576;2023-03-12T04:29:24;7.63;;;2.22;;
23228;SDS011;11783;50.350;6.576;2023-03-12T04:31:50;9.85;;;2.83;;
23228;SDS011;11783;50.350;6.576;2023-03-12T04:34:16;6.72;;;2.60;;
23228;SDS011;11783;50.350;6.576;2023-03-12T04:36:41;6.65;;;2.97;;
23228;SDS011;11783;50.350;6.576;2023-03-12T04:39:06;6.85;;;2.63;;
23228;SDS011;11783;50.350;6.576;2023-03-12T04:41:33;6.55;;;2.60;;
23228;SDS011;11783;50.350;6.576;2023-03-12T04:43:59;6.38;;;2.80;;
23228;SDS011;11783;50.350;6.576;2023-03-12T04:46:25;6.80;;;2.30;;
23228;SDS011;11783;50.350;6.576;2023-03-12T04:48:50;10.65;;;3.20;;
23228;SDS011;11783;50.350;6.576;2023-03-12T04:51:16;10.65;;;2.95;;
23228;SDS011;11783;50.350;6.576;2023-03-12T04:53:41;7.53;;;2.95;;
23228;SDS011;11783;50.350;6.576;2023-03-12T04:56:07;8.50;;;3.03;;
23228;SDS011;11783;50.350;6.576;2023-03-12T04:58:32;7.53;;;3.40;;
23228;SDS011;11783;50.350;6.576;2023-03-12T05:00:58;8.60;;;3.60;;
23228;SDS011;11783;50.350;6.576;2023-03-12T05:03:23;8.75;;;3.30;;
23228;SDS011;11783;50.350;6.576;2023-03-12T05:05:48;12.80;;;3.83;;
23228;SDS011;11783;50.350;6.576;2023-03-12T05:08:14;12.82;;;3.28;;
23228;SDS011;11783;50.350;6.576;2023-03-12T05:10:39;7.20;;;3.10;;
23228;SDS011;11783;50.350;6.576;2023-03-12T05:13:11;8.40;;;3.03;;
23228;SDS011;11783;50.350;6.576;2023-03-12T05:15:42;5.82;;;3.08;;
23228;SDS011;11783;50.350;6.576;2023-03-12T05:18:07;13.20;;;3.95;;
23228;SDS011;11783;50.350;6.576;2023-03-12T05:20:33;6.85;;;3.08;;
23228;SDS011;11783;50.350;6.576;2023-03-12T05:22:58;9.88;;;3.10;;
23228;SDS011;11783;50.350;6.576;2023-03-12T05:25:23;9.32;;;3.70;;
23228;SDS011;11783;50.350;6.576;2023-03-12T05:27:49;9.25;;;3.67;;
23228;SDS011;11783;50.350;6.576;2023-03-12T05:30:14;6.03;;;3.10;;
23228;SDS011;11783;50.350;6.576;2023-03-12T05:32:40;9.07;;;3.28;;
23228;SDS011;11783;50.350;6.576;2023-03-12T05:35:06;10.02;;;3.55;;
23228;SDS011;11783;50.350;6.576;2023-03-12T05:37:31;10.13;;;4.43;;
23228;SDS011;11783;50.350;6.576;2023-03-12T05:39:57;7.30;;;3.28;;
23228;SDS011;11783;50.350;6.576;2023-03-12T05:42:23;8.05;;;3.70;;
23228;SDS011;11783;50.350;6.576;2023-03-12T05:44:49;9.90;;;3.58;;
23228;SDS011;11783;50.350;6.576;2023-03-12T05:47:15;8.63;;;3.85;;
23228;SDS011;11783;50.350;6.576;2023-03-12T05:49:41;6.55;;;3.40;;
23228;SDS011;11783;50.350;6.576;2023-03-12T05:52:08;6.70;;;3.60;;
23228;SDS011;11783;50.350;6.576;2023-03-12T05:54:34;8.25;;;3.65;;
23228;SDS011;11783;50.350;6.576;2023-03-12T05:56:59;9.70;;;4.00;;
23228;SDS011;11783;50.350;6.576;2023-03-12T05:59:24;6.45;;;4.05;;
23228;SDS011;11783;50.350;6.576;2023-03-12T06:01:50;7.45;;;4.32;;
23228;SDS011;11783;50.350;6.576;2023-03-12T06:04:16;8.27;;;4.30;;
23228;SDS011;11783;50.350;6.576;2023-03-12T06:06:41;10.45;;;4.93;;
23228;SDS011;11783;50.350;6.576;2023-03-12T06:09:06;8.50;;;4.30;;
23228;SDS011;11783;50.350;6.576;2023-03-12T06:11:32;6.90;;;3.83;;
23228;SDS011;11783;50.350;6.576;2023-03-12T06:13:58;9.82;;;4.65;;
23228;SDS011;11783;50.350;6.576;2023-03-12T06:16:25;10.52;;;4.97;;
23228;SDS011;11783;50.350;6.576;2023-03-12T06:18:52;8.27;;;4.95;;
23228;SDS011;11783;50.350;6.576;2023-03-12T06:21:23;8.85;;;5.05;;
23228;SDS011;11783;50.350;6.576;2023-03-12T06:23:51;8.90;;;4.55;;
23228;SDS011;11783;50.350;6.576;2023-03-12T06:26:16;8.55;;;4.47;;
23228;SDS011;11783;50.350;6.576;2023-03-12T06:28:44;10.00;;;5.22;;
23228;SDS011;11783;50.350;6.576;2023-03-12T06:31:10;11.60;;;5.70;;
23228;SDS011;11783;50.350;6.576;2023-03-12T06:33:36;8.93;;;5.25;;
23228;SDS011;11783;50.350;6.576;2023-03-12T06:36:03;8.38;;;5.32;;
23228;SDS011;11783;50.350;6.576;2023-03-12T06:38:30;10.23;;;5.88;;
23228;SDS011;11783;50.350;6.576;2023-03-12T06:41:00;10.10;;;5.30;;
23228;SDS011;11783;50.350;6.576;2023-03-12T06:43:30;9.30;;;6.10;;
23228;SDS011;11783;50.350;6.576;2023-03-12T06:45:57;9.52;;;6.40;;
23228;SDS011;11783;50.350;6.576;2023-03-12T06:48:24;10.65;;;6.85;;
23228;SDS011;11783;50.350;6.576;2023-03-12T06:50:50;12.32;;;6.75;;
23228;SDS011;11783;50.350;6.576;2023-03-12T06:53:17;9.52;;;6.63;;
23228;SDS011;11783;50.350;6.576;2023-03-12T06:55:43;12.80;;;7.60;;
23228;SDS011;11783;50.350;6.576;2023-03-12T06:58:09;11.82;;;7.95;;
23228;SDS011;11783;50.350;6.576;2023-03-12T07:00:35;12.20;;;7.65;;
23228;SDS011;11783;50.350;6.576;2023-03-12T07:03:00;12.38;;;8.20;;
23228;SDS011;11783;50.350;6.576;2023-03-12T07:05:26;12.32;;;8.60;;
23228;SDS011;11783;50.350;6.576;2023-03-12T07:07:51;15.10;;;9.20;;
23228;SDS011;11783;50.350;6.576;2023-03-12T07:10:17;12.95;;;8.68;;
23228;SDS011;11783;50.350;6.576;2023-03-12T07:12:43;13.77;;;9.15;;
23228;SDS011;11783;50.350;6.576;2023-03-12T07:15:10;13.80;;;8.70;;
23228;SDS011;11783;50.350;6.576;2023-03-12T07:17:35;13.55;;;8.88;;
23228;SDS011;11783;50.350;6.576;2023-03-12T07:20:01;14.63;;;9.57;;
23228;SDS011;11783;50.350;6.576;2023-03-12T07:22:26;14.30;;;9.27;;
23228;SDS011;11783;50.350;6.576;2023-03-12T07:24:51;13.88;;;8.75;;
23228;SDS011;11783;50.350;6.576;2023-03-12T07:27:17;14.18;;;8.73;;
23228;SDS011;11783;50.350;6.576;2023-03-12T07:29:42;14.20;;;9.00;;
23228;SDS011;11783;50.350;6.576;2023-03-12T07:32:08;13.32;;;9.27;;
23228;SDS011;11783;50.350;6.576;2023-03-12T07:34:33;12.88;;;8.75;;
23228;SDS011;11783;50.350;6.576;2023-03-12T07:36:59;14.93;;;8.98;;
23228;SDS011;11783;50.350;6.576;2023-03-12T07:39:24;13.90;;;9.10;;
23228;SDS011;11783;50.350;6.576;2023-03-12T07:41:50;13.00;;;9.02;;
23228;SDS011;11783;50.350;6.576;2023-03-12T07:44:16;12.93;;;8.68;;
23228;SDS011;11783;50.350;6.576;2023-03-12T07:46:41;12.52;;;8.60;;
23228;SDS011;11783;50.350;6.576;2023-03-12T07:49:07;14.70;;;8.70;;
23228;SDS011;11783;50.350;6.576;2023-03-12T07:51:32;13.95;;;8.80;;
23228;SDS011;11783;50.350;6.576;2023-03-12T07:53:58;13.70;;;9.07;;
23228;SDS011;11783;50.350;6.576;2023-03-12T07:56:23;13.05;;;8.43;;
23228;SDS011;11783;50.350;6.576;2023-03-12T07:58:48;12.93;;;8.63;;
23228;SDS011;11783;50.350;6.576;2023-03-12T08:01:14;12.48;;;8.05;;
23228;SDS011;11783;50.350;6.576;2023-03-12T08:03:39;12.60;;;7.80;;
23228;SDS011;11783;50.350;6.576;2023-03-12T08:06:05;10.82;;;7.43;;
23228;SDS011;11783;50.350;6.576;2023-03-12T08:08:30;11.77;;;7.65;;
23228;SDS011;11783;50.350;6.576;2023-03-12T08:10:57;10.40;;;6.68;;
23228;SDS011;11783;50.350;6.576;2023-03-12T08:13:23;12.27;;;7.57;;
23228;SDS011;11783;50.350;6.576;2023-03-12T08:15:52;10.45;;;7.13;;
23228;SDS011;11783;50.350;6.576;2023-03-12T08:18:18;10.70;;;7.43;;
23228;SDS011;11783;50.350;6.576;2023-03-12T08:20:44;11.63;;;7.15;;
23228;SDS011;11783;50.350;6.576;2023-03-12T08:23:13;11.50;;;8.02;;
23228;SDS011;11783;50.350;6.576;2023-03-12T08:25:38;12.02;;;6.80;;
23228;SDS011;11783;50.350;6.576;2023-03-12T08:28:04;9.45;;;6.47;;
23228;SDS011;11783;50.350;6.576;2023-03-12T08:30:29;8.52;;;5.85;;
23228;SDS011;11783;50.350;6.576;2023-03-12T08:32:55;9.73;;;6.30;;
23228;SDS011;11783;50.350;6.576;2023-03-12T08:35:21;10.05;;;5.85;;
23228;SDS011;11783;50.350;6.576;2023-03-12T08:37:47;8.27;;;5.78;;
23228;SDS011;11783;50.350;6.576;2023-03-12T08:40:12;8.55;;;5.13;;
23228;SDS011;11783;50.350;6.576;2023-03-12T08:42:41;8.57;;;5.68;;
23228;SDS011;11783;50.350;6.576;2023-03-12T08:45:08;8.20;;;5.57;;
23228;SDS011;11783;50.350;6.576;2023-03-12T08:47:35;9.85;;;6.45;;
23228;SDS011;11783;50.350;6.576;2023-03-12T08:50:01;9.90;;;7.07;;
23228;SDS011;11783;50.350;6.576;2023-03-12T08:52:26;9.43;;;6.40;;
23228;SDS011;11783;50.350;6.576;2023-03-12T08:54:52;10.20;;;6.32;;
23228;SDS011;11783;50.350;6.576;2023-03-12T08:57:17;8.80;;;5.78;;
23228;SDS011;11783;50.350;6.576;2023-03-12T08:59:43;10.25;;;6.30;;
23228;SDS011;11783;50.350;6.576;2023-03-12T09:02:10;9.20;;;5.95;;
23228;SDS011;11783;50.350;6.576;2023-03-12T09:04:36;9.85;;;5.97;;
23228;SDS011;11783;50.350;6.576;2023-03-12T09:07:01;8.23;;;5.85;;
23228;SDS011;11783;50.350;6.576;2023-03-12T09:09:27;6.63;;;4.80;;
23228;SDS011;11783;50.350;6.576;2023-03-12T09:11:52;7.40;;;4.75;;
23228;SDS011;11783;50.350;6.576;2023-03-12T09:14:18;7.65;;;4.65;;
23228;SDS011;11783;50.350;6.576;2023-03-12T09:16:44;6.47;;;4.70;;
23228;SDS011;11783;50.350;6.576;2023-03-12T09:19:09;6.50;;;4.45;;
23228;SDS011;11783;50.350;6.576;2023-03-12T09:21:35;7.15;;;4.63;;
23228;SDS011;11783;50.350;6.576;2023-03-12T09:24:00;7.45;;;5.15;;
23228;SDS011;11783;50.350;6.576;2023-03-12T09:26:26;7.25;;;4.82;;
23228;SDS011;11783;50.350;6.576;2023-03-12T09:28:51;6.90;;;4.07;;
23228;SDS011;11783;50.350;6.576;2023-03-12T09:31:16;6.95;;;3.65;;
23228;SDS011;11783;50.350;6.576;2023-03-12T09:33:42;5.68;;;3.20;;
23228;SDS011;11783;50.350;6.576;2023-03-12T09:36:07;5.55;;;3.78;;
23228;SDS011;11783;50.350;6.576;2023-03-12T09:38:33;5.28;;;3.10;;
23228;SDS011;11783;50.350;6.576;2023-03-12T09:40:59;4.38;;;2.88;;
23228;SDS011;11783;50.350;6.576;2023-03-12T09:43:37;7.10;;;3.55;;
23228;SDS011;11783;50.350;6.576;2023-03-12T09:46:09;5.68;;;2.55;;
23228;SDS011;11783;50.350;6.576;2023-03-12T09:48:38;5.40;;;2.70;;
23228;SDS011;11783;50.350;6.576;2023-03-12T09:51:08;5.13;;;2.90;;
23228;SDS011;11783;50.350;6.576;2023-03-12T09:53:41;5.65;;;2.60;;
23228;SDS011;11783;50.350;6.576;2023-03-12T09:56:13;7.38;;;4.07;;
23228;SDS011;11783;50.350;6.576;2023-03-12T09:58:41;4.78;;;2.50;;
23228;SDS011;11783;50.350;6.576;2023-03-12T10:01:18;5.95;;;2.42;;
23228;SDS011;11783;50.350;6.576;2023-03-12T10:12:23;3.80;;;1.70;;
23228;SDS011;11783;50.350;6.576;2023-03-12T10:17:42;5.43;;;1.90;;
23228;SDS011;11783;50.350;6.576;2023-03-12T10:23:16;5.65;;;2.35;;
23228;SDS011;11783;50.350;6.576;2023-03-12T10:26:13;4.20;;;1.80;;
23228;SDS011;11783;50.350;6.576;2023-03-12T10:31:20;3.50;;;1.58;;
23228;SDS011;11783;50.350;6.576;2023-03-12T10:36:21;3.03;;;1.80;;
23228;SDS011;11783;50.350;6.576;2023-03-12T10:38:50;4.07;;;1.90;;
23228;SDS011;11783;50.350;6.576;2023-03-12T10:41:17;5.43;;;1.70;;
23228;SDS011;11783;50.350;6.576;2023-03-12T10:43:45;3.95;;;1.45;;
23228;SDS011;11783;50.350;6.576;2023-03-12T10:48:39;3.15;;;1.52;;
23228;SDS011;11783;50.350;6.576;2023-03-12T10:51:10;4.53;;;1.63;;
23228;SDS011;11783;50.350;6.576;2023-03-12T10:53:43;3.83;;;1.50;;
23228;SDS011;11783;50.350;6.576;2023-03-12T10:56:19;4.07;;;1.42;;
23228;SDS011;11783;50.350;6.576;2023-03-12T10:58:46;5.07;;;1.80;;
23228;SDS011;11783;50.350;6.576;2023-03-12T11:03:42;2.25;;;1.35;;
23228;SDS011;11783;50.350;6.576;2023-03-12T11:06:09;4.97;;;1.40;;
23228;SDS011;11783;50.350;6.576;2023-03-12T11:09:02;2.83;;;1.55;;
23228;SDS011;11783;50.350;6.576;2023-03-12T11:11:39;3.50;;;1.50;;
23228;SDS011;11783;50.350;6.576;2023-03-12T11:14:15;3.15;;;1.35;;
23228;SDS011;11783;50.350;6.576;2023-03-12T11:16:48;2.80;;;1.33;;
23228;SDS011;11783;50.350;6.576;2023-03-12T11:19:29;2.95;;;1.30;;
23228;SDS011;11783;50.350;6.576;2023-03-12T11:21:57;3.70;;;1.30;;
23228;SDS011;11783;50.350;6.576;2023-03-12T11:24:25;4.20;;;1.48;;
23228;SDS011;11783;50.350;6.576;2023-03-12T11:26:51;4.28;;;2.00;;
23228;SDS011;11783;50.350;6.576;2023-03-12T11:29:28;11.48;;;6.15;;
23228;SDS011;11783;50.350;6.576;2023-03-12T11:32:23;6.10;;;3.17;;
23228;SDS011;11783;50.350;6.576;2023-03-12T11:40:02;9.10;;;2.85;;
23228;SDS011;11783;50.350;6.576;2023-03-12T11:50:47;4.97;;;1.70;;
23228;SDS011;11783;50.350;6.576;2023-03-12T11:59:38;4.18;;;1.58;;
23228;SDS011;11783;50.350;6.576;2023-03-12T12:10:42;3.88;;;1.80;;
23228;SDS011;11783;50.350;6.576;2023-03-12T12:16:06;3.45;;;1.83;;
23228;SDS011;11783;50.350;6.576;2023-03-12T12:29:42;2.85;;;0.80;;
23228;SDS011;11783;50.350;6.576;2023-03-12T12:32:53;7.05;;;1.85;;
23228;SDS011;11783;50.350;6.576;2023-03-12T12:35:46;3.00;;;0.85;;
23228;SDS011;11783;50.350;6.576;2023-03-12T12:38:17;2.83;;;0.90;;
23228;SDS011;11783;50.350;6.576;2023-03-12T12:43:39;2.13;;;0.90;;
23228;SDS011;11783;50.350;6.576;2023-03-12T12:48:43;3.20;;;0.68;;
23228;SDS011;11783;50.350;6.576;2023-03-12T12:51:14;4.10;;;0.68;;
23228;SDS011;11783;50.350;6.576;2023-03-12T12:54:03;3.70;;;1.00;;
23228;SDS011;11783;50.350;6.576;2023-03-12T12:56:48;4.22;;;1.45;;
23228;SDS011;11783;50.350;6.576;2023-03-12T13:02:21;6.10;;;1.17;;
23228;SDS011;11783;50.350;6.576;2023-03-12T13:04:57;4.30;;;1.30;;
23228;SDS011;11783;50.350;6.576;2023-03-12T13:09:49;5.45;;;1.65;;
23228;SDS011;11783;50.350;6.576;2023-03-12T13:14:54;8.05;;;1.60;;
23228;SDS011;11783;50.350;6.576;2023-03-12T13:22:29;4.32;;;1.20;;
23228;SDS011;11783;50.350;6.576;2023-03-12T13:25:19;7.70;;;1.20;;
23228;SDS011;11783;50.350;6.576;2023-03-12T13:27:48;6.80;;;1.30;;
23228;SDS011;11783;50.350;6.576;2023-03-12T13:35:32;6.10;;;1.17;;
23228;SDS011;11783;50.350;6.576;2023-03-12T13:38:05;3.75;;;1.30;;
23228;SDS011;11783;50.350;6.576;2023-03-12T13:40:37;5.57;;;1.20;;
23228;SDS011;11783;50.350;6.576;2023-03-12T13:43:29;4.93;;;1.10;;
23228;SDS011;11783;50.350;6.576;2023-03-12T13:46:21;4.25;;;1.40;;
23228;SDS011;11783;50.350;6.576;2023-03-12T13:49:04;6.47;;;1.50;;
23228;SDS011;11783;50.350;6.576;2023-03-12T13:51:41;8.82;;;1.60;;
23228;SDS011;11783;50.350;6.576;2023-03-12T13:54:12;10.40;;;1.50;;
23228;SDS011;11783;50.350;6.576;2023-03-12T13:56:43;6.53;;;1.40;;
23228;SDS011;11783;50.350;6.576;2023-03-12T13:59:17;5.43;;;1.45;;
23228;SDS011;11783;50.350;6.576;2023-03-12T14:01:47;8.23;;;1.58;;
23228;SDS011;11783;50.350;6.576;2023-03-12T14:04:18;10.20;;;2.20;;
23228;SDS011;11783;50.350;6.576;2023-03-12T14:12:21;11.82;;;2.15;;
23228;SDS011;11783;50.350;6.576;2023-03-12T14:15:13;11.00;;;2.10;;
23228;SDS011;11783;50.350;6.576;2023-03-12T14:17:41;17.23;;;2.60;;
23228;SDS011;11783;50.350;6.576;2023-03-12T14:20:18;11.13;;;2.78;;
23228;SDS011;11783;50.350;6.576;2023-03-12T14:23:07;9.63;;;2.22;;
23228;SDS011;11783;50.350;6.576;2023-03-12T14:25:36;12.00;;;2.25;;
23228;SDS011;11783;50.350;6.576;2023-03-12T14:28:19;13.20;;;2.58;;
23228;SDS011;11783;50.350;6.576;2023-03-12T14:36:21;12.43;;;2.15;;
23228;SDS011;11783;50.350;6.576;2023-03-12T14:38:55;12.52;;;2.45;;
23228;SDS011;11783;50.350;6.576;2023-03-12T14:41:35;16.00;;;2.53;;
23228;SDS011;11783;50.350;6.576;2023-03-12T14:44:20;16.40;;;2.85;;
23228;SDS011;11783;50.350;6.576;2023-03-12T14:46:58;17.60;;;3.40;;
23228;SDS011;11783;50.350;6.576;2023-03-12T14:49:26;16.58;;;3.30;;
23228;SDS011;11783;50.350;6.576;2023-03-12T14:51:52;17.23;;;3.13;;
23228;SDS011;11783;50.350;6.576;2023-03-12T14:54:19;14.35;;;2.85;;
23228;SDS011;11783;50.350;6.576;2023-03-12T14:56:47;15.65;;;2.85;;
23228;SDS011;11783;50.350;6.576;2023-03-12T15:04:41;20.02;;;3.72;;
23228;SDS011;11783;50.350;6.576;2023-03-12T15:07:12;17.17;;;3.70;;
23228;SDS011;11783;50.350;6.576;2023-03-12T15:09:42;21.27;;;4.25;;
23228;SDS011;11783;50.350;6.576;2023-03-12T15:12:20;18.85;;;3.40;;
23228;SDS011;11783;50.350;6.576;2023-03-12T15:14:47;25.23;;;4.50;;
23228;SDS011;11783;50.350;6.576;2023-03-12T15:17:17;19.80;;;3.30;;
23228;SDS011;11783;50.350;6.576;2023-03-12T15:19:44;22.45;;;3.70;;
23228;SDS011;11783;50.350;6.576;2023-03-12T15:22:16;19.92;;;3.55;;
23228;SDS011;11783;50.350;6.576;2023-03-12T15:24:44;20.05;;;3.80;;
23228;SDS011;11783;50.350;6.576;2023-03-12T15:27:44;19.33;;;3.88;;
23228;SDS011;11783;50.350;6.576;2023-03-12T15:30:20;19.25;;;4.18;;
23228;SDS011;11783;50.350;6.576;2023-03-12T15:35:35;22.10;;;3.80;;
23228;SDS011;11783;50.350;6.576;2023-03-12T15:38:02;20.05;;;3.60;;
23228;SDS011;11783;50.350;6.576;2023-03-12T15:40:28;23.77;;;5.15;;
23228;SDS011;11783;50.350;6.576;2023-03-12T15:42:55;24.27;;;5.60;;
23228;SDS011;11783;50.350;6.576;2023-03-12T15:45:30;16.33;;;3.40;;
23228;SDS011;11783;50.350;6.576;2023-03-12T15:48:00;19.48;;;4.22;;
23228;SDS011;11783;50.350;6.576;2023-03-12T15:50:40;23.83;;;4.88;;
23228;SDS011;11783;50.350;6.576;2023-03-12T15:55:36;19.45;;;3.40;;
23228;SDS011;11783;50.350;6.576;2023-03-12T15:58:02;18.48;;;3.35;;
23228;SDS011;11783;50.350;6.576;2023-03-12T16:00:47;20.55;;;3.88;;
23228;SDS011;11783;50.350;6.576;2023-03-12T16:03:14;19.73;;;4.10;;
23228;SDS011;11783;50.350;6.576;2023-03-12T16:05:41;24.45;;;4.75;;
23228;SDS011;11783;50.350;6.576;2023-03-12T16:08:13;19.20;;;3.88;;
23228;SDS011;11783;50.350;6.576;2023-03-12T16:10:42;28.00;;;4.18;;
23228;SDS011;11783;50.350;6.576;2023-03-12T16:13:08;22.83;;;4.13;;
23228;SDS011;11783;50.350;6.576;2023-03-12T16:15:38;19.87;;;4.10;;
23228;SDS011;11783;50.350;6.576;2023-03-12T16:18:04;20.73;;;4.07;;
23228;SDS011;11783;50.350;6.576;2023-03-12T16:20:36;14.25;;;3.63;;
23228;SDS011;11783;50.350;6.576;2023-03-12T16:23:01;17.08;;;4.05;;
23228;SDS011;11783;50.350;6.576;2023-03-12T16:25:27;21.15;;;4.00;;
23228;SDS011;11783;50.350;6.576;2023-03-12T16:27:53;22.05;;;3.90;;
23228;SDS011;11783;50.350;6.576;2023-03-12T16:30:23;24.55;;;4.82;;
23228;SDS011;11783;50.350;6.576;2023-03-12T16:32:53;20.02;;;3.80;;
23228;SDS011;11783;50.350;6.576;2023-03-12T16:35:19;18.40;;;3.95;;
23228;SDS011;11783;50.350;6.576;2023-03-12T16:37:45;24.45;;;4.80;;
23228;SDS011;11783;50.350;6.576;2023-03-12T16:40:11;21.60;;;4.05;;
23228;SDS011;11783;50.350;6.576;2023-03-12T16:42:39;26.27;;;4.50;;
23228;SDS011;11783;50.350;6.576;2023-03-12T16:45:08;18.30;;;3.47;;
23228;SDS011;11783;50.350;6.576;2023-03-12T16:47:37;22.52;;;5.40;;
23228;SDS011;11783;50.350;6.576;2023-03-12T16:50:07;25.45;;;5.28;;
23228;SDS011;11783;50.350;6.576;2023-03-12T16:52:44;19.58;;;5.15;;
23228;SDS011;11783;50.350;6.576;2023-03-12T16:55:15;12.02;;;2.63;;
23228;SDS011;11783;50.350;6.576;2023-03-12T16:57:43;20.25;;;3.67;;